createdAt,value
2022-10-31T00:00:13.865Z,3.90
2022-10-31T00:03:01.666Z,3.83
2022-10-31T00:05:50.470Z,3.17
2022-10-31T00:08:37.968Z,3.50
2022-10-31T00:11:26.182Z,3.23
2022-10-31T00:14:13.639Z,3.30
2022-10-31T00:17:00.658Z,4.03
2022-10-31T00:19:47.943Z,3.17
2022-10-31T00:22:34.978Z,3.53
2022-10-31T00:25:22.447Z,4.20
2022-10-31T00:28:12.394Z,5.73
2022-10-31T00:31:03.823Z,4.23
2022-10-31T00:33:50.835Z,3.13
2022-10-31T00:36:38.293Z,3.47
2022-10-31T00:39:25.738Z,3.27
2022-10-31T00:42:12.562Z,3.73
2022-10-31T00:45:00.075Z,4.00
2022-10-31T00:47:47.603Z,4.70
2022-10-31T00:50:34.419Z,9.00
2022-10-31T00:53:21.928Z,4.63
2022-10-31T00:56:08.952Z,3.63
2022-10-31T00:58:56.496Z,3.60
2022-10-31T01:01:44.352Z,3.00
2022-10-31T01:04:31.291Z,3.47
2022-10-31T01:07:18.620Z,4.87
2022-10-31T01:10:07.151Z,3.40
2022-10-31T01:12:54.700Z,4.17
2022-10-31T01:15:41.682Z,3.87
2022-10-31T01:18:30.203Z,3.73
2022-10-31T01:21:22.625Z,3.53
2022-10-31T01:24:09.850Z,3.57
2022-10-31T01:26:57.492Z,3.70
2022-10-31T01:29:44.988Z,4.20
2022-10-31T01:32:32.499Z,4.03
2022-10-31T01:35:19.983Z,3.33
2022-10-31T01:38:06.980Z,3.33
2022-10-31T01:40:54.639Z,3.50
2022-10-31T01:43:56.916Z,3.80
2022-10-31T01:47:04.456Z,3.77
2022-10-31T01:50:00.339Z,4.13
2022-10-31T01:52:51.950Z,4.03
2022-10-31T01:55:42.445Z,3.93
2022-10-31T01:58:32.816Z,4.07
2022-10-31T02:01:20.604Z,3.77
2022-10-31T02:04:09.123Z,4.07
2022-10-31T02:07:09.424Z,3.50
2022-10-31T02:09:57.990Z,3.60
2022-10-31T02:12:46.267Z,3.53
2022-10-31T02:15:34.757Z,4.00
2022-10-31T02:18:22.962Z,3.63
2022-10-31T02:21:25.287Z,3.93
2022-10-31T02:24:33.916Z,3.03
2022-10-31T02:27:59.907Z,3.23
2022-10-31T02:31:13.975Z,3.43
2022-10-31T02:34:34.719Z,4.40
2022-10-31T02:37:33.644Z,3.50
2022-10-31T02:40:31.589Z,3.20
2022-10-31T02:43:38.962Z,3.90
2022-10-31T02:46:41.118Z,3.63
2022-10-31T02:49:47.190Z,3.57
2022-10-31T02:52:35.889Z,4.23
2022-10-31T02:55:25.631Z,3.80
2022-10-31T02:58:16.646Z,3.47
2022-10-31T03:01:16.113Z,3.47
2022-10-31T03:04:28.920Z,3.40
2022-10-31T03:07:31.183Z,3.33
2022-10-31T03:10:29.895Z,3.23
2022-10-31T03:13:35.131Z,4.50
2022-10-31T03:16:46.799Z,4.20
2022-10-31T03:19:39.807Z,3.53
2022-10-31T03:22:31.034Z,3.80
2022-10-31T03:25:18.502Z,3.87
2022-10-31T03:28:07.469Z,3.53
2022-10-31T03:30:55.888Z,3.50
2022-10-31T03:33:45.194Z,3.50
2022-10-31T03:36:34.471Z,3.17
2022-10-31T03:39:24.223Z,3.73
2022-10-31T03:42:17.202Z,3.80
2022-10-31T03:45:14.690Z,3.33
2022-10-31T03:48:02.112Z,3.20
2022-10-31T03:50:58.901Z,3.33
2022-10-31T03:53:55.949Z,3.80
2022-10-31T03:56:50.325Z,3.40
2022-10-31T03:59:44.325Z,3.07
2022-10-31T04:02:35.111Z,3.40
2022-10-31T04:05:22.718Z,4.07
2022-10-31T04:08:14.649Z,3.33
2022-10-31T04:11:03.929Z,3.13
2022-10-31T04:13:52.991Z,3.10
2022-10-31T04:16:44.129Z,3.33
2022-10-31T04:19:31.123Z,3.80
2022-10-31T04:22:18.204Z,3.63
2022-10-31T04:25:05.742Z,3.53
2022-10-31T04:27:53.205Z,3.53
2022-10-31T04:30:40.206Z,3.20
2022-10-31T04:33:27.711Z,3.43
2022-10-31T04:36:15.231Z,3.20
2022-10-31T04:39:02.229Z,3.13
2022-10-31T04:41:49.705Z,3.60
2022-10-31T04:44:37.203Z,3.67
2022-10-31T04:47:24.372Z,3.10
2022-10-31T04:50:11.851Z,3.50
2022-10-31T04:52:59.374Z,3.13
2022-10-31T04:55:46.363Z,3.77
2022-10-31T04:58:33.186Z,2.80
2022-10-31T05:01:20.286Z,3.67
2022-10-31T05:04:07.632Z,2.60
2022-10-31T05:06:54.862Z,3.90
2022-10-31T05:09:41.926Z,3.03
2022-10-31T05:12:28.931Z,3.70
2022-10-31T05:15:17.279Z,3.27
2022-10-31T05:18:04.679Z,3.80
2022-10-31T05:20:52.215Z,3.53
2022-10-31T05:23:42.016Z,3.37
2022-10-31T05:26:31.568Z,3.50
2022-10-31T05:29:18.396Z,2.97
2022-10-31T05:32:05.856Z,3.60
2022-10-31T05:34:52.841Z,3.63
2022-10-31T05:37:40.720Z,4.27
2022-10-31T05:40:28.886Z,4.07
2022-10-31T05:43:15.969Z,3.60
2022-10-31T05:46:03.509Z,3.50
2022-10-31T05:48:50.482Z,4.10
2022-10-31T05:51:37.952Z,3.37
2022-10-31T05:54:24.960Z,3.53
2022-10-31T05:57:12.468Z,3.10
2022-10-31T05:59:59.454Z,3.73
2022-10-31T06:02:47.100Z,4.00
2022-10-31T06:05:34.788Z,3.77
2022-10-31T06:08:22.353Z,4.23
2022-10-31T06:11:09.376Z,3.80
2022-10-31T06:13:56.912Z,3.73
2022-10-31T06:16:43.972Z,3.40
2022-10-31T06:19:31.398Z,3.97
2022-10-31T06:22:18.434Z,3.67
2022-10-31T06:25:05.697Z,3.70
2022-10-31T06:27:53.173Z,3.00
2022-10-31T06:30:40.635Z,3.67
2022-10-31T06:33:27.702Z,3.63
2022-10-31T06:36:15.272Z,4.77
2022-10-31T06:39:02.640Z,3.30
2022-10-31T06:41:50.278Z,3.73
2022-10-31T06:44:37.729Z,4.20
2022-10-31T06:47:25.159Z,3.47
2022-10-31T06:50:12.107Z,3.70
2022-10-31T06:52:59.680Z,3.67
2022-10-31T06:55:46.699Z,4.10
2022-10-31T06:58:34.346Z,4.03
2022-10-31T07:01:21.912Z,4.40
2022-10-31T07:04:10.918Z,3.30
2022-10-31T07:06:58.018Z,3.40
2022-10-31T07:09:44.923Z,4.17
2022-10-31T07:12:32.151Z,3.87
2022-10-31T07:15:19.374Z,2.87
2022-10-31T07:18:08.031Z,2.90
2022-10-31T07:20:55.255Z,4.00
2022-10-31T07:23:42.770Z,3.30
2022-10-31T07:26:29.725Z,3.03
2022-10-31T07:29:17.577Z,3.03
2022-10-31T07:32:04.859Z,2.88
2022-10-31T07:34:52.617Z,3.30
2022-10-31T07:37:40.679Z,2.72
2022-10-31T07:40:28.058Z,3.15
2022-10-31T07:43:15.957Z,3.17
2022-10-31T07:46:03.168Z,2.80
2022-10-31T07:48:50.544Z,3.40
2022-10-31T07:51:39.690Z,3.13
2022-10-31T07:54:28.880Z,3.50
2022-10-31T07:57:18.343Z,3.15
2022-10-31T08:00:10.298Z,2.95
2022-10-31T08:02:59.806Z,3.90
2022-10-31T08:05:47.733Z,2.67
2022-10-31T08:08:37.557Z,3.95
2022-10-31T08:11:25.488Z,3.80
2022-10-31T08:14:12.713Z,2.97
2022-10-31T08:16:59.667Z,3.17
2022-10-31T08:19:47.090Z,3.72
2022-10-31T08:22:33.867Z,3.70
2022-10-31T08:25:21.326Z,4.22
2022-10-31T08:28:10.382Z,4.18
2022-10-31T08:30:59.425Z,3.65
2022-10-31T08:33:46.200Z,3.90
2022-10-31T08:36:34.014Z,4.07
2022-10-31T08:39:21.670Z,4.32
2022-10-31T08:42:08.646Z,5.07
2022-10-31T08:44:56.476Z,4.38
2022-10-31T08:47:43.326Z,4.53
2022-10-31T08:50:32.318Z,4.88
2022-10-31T08:53:20.623Z,4.57
2022-10-31T08:56:08.288Z,5.00
2022-10-31T08:58:55.863Z,5.15
2022-10-31T09:01:43.423Z,4.65
2022-10-31T09:04:30.761Z,4.80
2022-10-31T09:07:21.662Z,5.30
2022-10-31T09:10:09.461Z,4.38
2022-10-31T09:13:07.977Z,4.45
2022-10-31T09:15:55.713Z,4.32
2022-10-31T09:18:42.945Z,5.10
2022-10-31T09:21:30.151Z,4.60
2022-10-31T09:24:17.979Z,4.18
2022-10-31T09:27:05.249Z,4.85
2022-10-31T09:29:52.034Z,3.35
2022-10-31T09:32:39.375Z,4.88
2022-10-31T09:35:26.879Z,4.18
2022-10-31T09:38:20.257Z,4.63
2022-10-31T09:41:10.376Z,4.55
2022-10-31T09:44:12.278Z,4.85
2022-10-31T09:47:11.200Z,4.53
2022-10-31T09:50:27.614Z,4.43
2022-10-31T09:53:36.557Z,4.97
2022-10-31T09:56:26.340Z,4.65
2022-10-31T09:59:28.242Z,3.60
2022-10-31T10:02:31.826Z,4.25
2022-10-31T10:05:25.578Z,3.30
2022-10-31T10:08:21.260Z,4.18
2022-10-31T10:11:37.175Z,3.30
2022-10-31T10:14:37.075Z,3.42
2022-10-31T10:17:24.727Z,3.22
2022-10-31T10:20:24.310Z,3.20
2022-10-31T10:23:30.633Z,3.08
2022-10-31T10:26:22.489Z,3.17
2022-10-31T10:29:20.135Z,2.83
2022-10-31T10:32:35.602Z,2.30
2022-10-31T10:35:35.246Z,2.78
2022-10-31T10:38:47.710Z,2.20
2022-10-31T10:41:35.140Z,2.50
2022-10-31T10:44:22.541Z,2.50
2022-10-31T10:47:28.594Z,2.63
2022-10-31T10:50:18.412Z,2.90
2022-10-31T10:53:22.424Z,2.85
2022-10-31T10:56:22.843Z,2.63
2022-10-31T10:59:13.068Z,2.45
2022-10-31T11:02:01.253Z,2.33
2022-10-31T11:04:53.728Z,3.20
2022-10-31T11:07:42.020Z,2.88
2022-10-31T11:10:30.173Z,2.17
2022-10-31T11:13:25.139Z,2.28
2022-10-31T11:16:30.961Z,2.63
2022-10-31T11:19:21.116Z,3.28
2022-10-31T11:22:10.220Z,1.85
2022-10-31T11:24:57.634Z,2.15
2022-10-31T11:27:45.552Z,2.00
2022-10-31T11:30:37.680Z,2.10
2022-10-31T11:33:30.170Z,2.55
2022-10-31T11:36:20.379Z,2.53
2022-10-31T11:39:15.923Z,2.22
2022-10-31T11:42:08.753Z,2.58
2022-10-31T11:44:57.261Z,2.40
2022-10-31T11:47:48.468Z,2.30
2022-10-31T11:50:39.562Z,2.10
2022-10-31T11:53:31.070Z,2.25
2022-10-31T11:56:18.939Z,2.05
2022-10-31T11:59:07.885Z,2.33
2022-10-31T12:01:56.483Z,2.38
2022-10-31T12:04:46.267Z,2.15
2022-10-31T12:07:34.037Z,1.90
2022-10-31T12:10:23.892Z,2.22
2022-10-31T12:13:26.566Z,2.58
2022-10-31T12:16:35.453Z,2.10
2022-10-31T12:19:22.833Z,2.30
2022-10-31T12:22:16.261Z,2.83
2022-10-31T12:25:13.629Z,2.40
2022-10-31T12:28:19.372Z,2.13
2022-10-31T12:31:17.994Z,2.35
2022-10-31T12:34:31.598Z,2.05
2022-10-31T12:37:37.498Z,2.60
2022-10-31T12:40:27.561Z,2.30
2022-10-31T12:43:29.020Z,2.20
2022-10-31T12:46:36.458Z,1.75
2022-10-31T12:49:42.073Z,2.85
2022-10-31T12:52:48.249Z,2.10
2022-10-31T12:55:54.789Z,2.45
2022-10-31T12:58:45.970Z,2.40
2022-10-31T13:01:48.864Z,2.15
2022-10-31T13:04:50.757Z,2.30
2022-10-31T13:07:41.057Z,2.45
2022-10-31T13:10:38.504Z,2.15
2022-10-31T13:13:28.370Z,2.33
2022-10-31T13:16:20.292Z,2.17
2022-10-31T13:19:15.708Z,2.42
2022-10-31T13:22:19.580Z,2.58
2022-10-31T13:25:09.879Z,2.53
2022-10-31T13:28:02.585Z,2.33
2022-10-31T13:30:50.377Z,2.20
2022-10-31T13:33:41.541Z,2.30
2022-10-31T13:36:55.972Z,2.45
2022-10-31T13:40:02.348Z,2.72
2022-10-31T13:43:04.800Z,2.70
2022-10-31T13:45:53.269Z,2.38
2022-10-31T13:48:43.505Z,2.35
2022-10-31T13:51:32.959Z,2.88
2022-10-31T13:54:25.617Z,2.90
2022-10-31T13:57:42.337Z,3.20
2022-10-31T14:00:30.182Z,3.08
2022-10-31T14:03:36.157Z,2.92
2022-10-31T14:06:48.291Z,4.35
2022-10-31T14:09:55.186Z,3.15
2022-10-31T14:12:46.486Z,2.47
2022-10-31T14:15:33.898Z,2.40
2022-10-31T14:18:26.059Z,2.63
2022-10-31T14:21:25.367Z,2.53
2022-10-31T14:24:16.365Z,2.50
2022-10-31T14:27:23.551Z,2.60
2022-10-31T14:30:17.363Z,2.85
2022-10-31T14:33:14.715Z,2.80
2022-10-31T14:36:04.788Z,3.13
2022-10-31T14:39:10.971Z,3.88
2022-10-31T14:42:07.754Z,3.30
2022-10-31T14:45:07.411Z,3.00
2022-10-31T14:48:01.519Z,2.92
2022-10-31T14:50:53.792Z,2.97
2022-10-31T14:53:48.501Z,3.30
2022-10-31T14:56:37.599Z,3.17
2022-10-31T14:59:28.104Z,3.38
2022-10-31T15:02:22.042Z,2.95
2022-10-31T15:05:11.103Z,3.38
2022-10-31T15:07:59.613Z,3.08
2022-10-31T15:10:47.523Z,3.42
2022-10-31T15:13:35.193Z,3.47
2022-10-31T15:16:23.990Z,3.38
2022-10-31T15:19:17.974Z,4.47
2022-10-31T15:22:05.590Z,2.85
2022-10-31T15:24:57.560Z,3.42
2022-10-31T15:27:45.879Z,3.88
2022-10-31T15:30:33.298Z,3.42
2022-10-31T15:33:22.231Z,3.00
2022-10-31T15:36:21.520Z,3.50
2022-10-31T15:39:13.333Z,3.42
2022-10-31T15:42:01.015Z,3.20
2022-10-31T15:44:51.847Z,3.13
2022-10-31T15:47:39.877Z,3.85
2022-10-31T15:50:35.790Z,4.03
2022-10-31T15:53:26.264Z,3.55
2022-10-31T15:56:16.209Z,3.38
2022-10-31T15:59:04.527Z,4.05
2022-10-31T16:02:02.958Z,4.10
2022-10-31T16:04:59.015Z,4.00
2022-10-31T16:07:53.584Z,4.05
2022-10-31T16:10:41.277Z,4.00
2022-10-31T16:13:29.803Z,4.90
2022-10-31T16:16:34.775Z,5.25
2022-10-31T16:19:24.867Z,6.38
2022-10-31T16:22:15.196Z,6.22
2022-10-31T16:25:13.945Z,5.45
2022-10-31T16:28:05.585Z,5.88
2022-10-31T16:30:54.174Z,5.43
2022-10-31T16:33:41.536Z,5.78
2022-10-31T16:36:36.629Z,5.78
2022-10-31T16:39:23.882Z,5.72
2022-10-31T16:42:11.676Z,5.68
2022-10-31T16:44:59.919Z,6.05
2022-10-31T16:47:47.460Z,6.60
2022-10-31T16:50:35.011Z,5.90
2022-10-31T16:53:23.093Z,6.88
2022-10-31T16:56:16.004Z,6.45
2022-10-31T16:59:05.169Z,8.23
2022-10-31T17:01:53.116Z,7.60
2022-10-31T17:04:40.461Z,8.05
2022-10-31T17:07:27.654Z,7.90
2022-10-31T17:10:16.137Z,7.65
2022-10-31T17:13:04.457Z,7.55
2022-10-31T17:15:56.065Z,9.38
2022-10-31T17:18:47.965Z,11.00
2022-10-31T17:21:35.203Z,16.30
2022-10-31T17:24:22.708Z,26.25
2022-10-31T17:27:09.989Z,20.08
2022-10-31T17:29:57.733Z,15.65
2022-10-31T17:32:46.324Z,14.80
2022-10-31T17:35:33.706Z,11.50
2022-10-31T17:38:21.590Z,12.43
2022-10-31T17:41:11.285Z,12.07
2022-10-31T17:43:59.872Z,8.85
2022-10-31T17:46:47.377Z,8.82
2022-10-31T17:49:34.603Z,8.65
2022-10-31T17:52:22.527Z,9.55
2022-10-31T17:55:10.739Z,10.75
2022-10-31T17:57:58.441Z,10.38
2022-10-31T18:00:48.843Z,10.07
2022-10-31T18:03:39.321Z,10.98
2022-10-31T18:06:26.779Z,11.25
2022-10-31T18:09:14.417Z,11.82
2022-10-31T18:12:02.084Z,9.80
2022-10-31T18:14:49.512Z,11.63
2022-10-31T18:17:41.019Z,9.55
2022-10-31T18:20:30.092Z,9.00
2022-10-31T18:23:17.985Z,8.80
2022-10-31T18:26:05.309Z,9.85
2022-10-31T18:28:53.630Z,12.38
2022-10-31T18:31:41.498Z,12.63
2022-10-31T18:34:29.421Z,13.65
2022-10-31T18:37:17.125Z,11.85
2022-10-31T18:40:04.743Z,9.97
2022-10-31T18:42:52.395Z,11.00
2022-10-31T18:45:49.527Z,10.48
2022-10-31T18:48:41.815Z,10.57
2022-10-31T18:51:29.742Z,10.97
2022-10-31T18:54:17.377Z,10.63
2022-10-31T18:57:04.659Z,9.80
2022-10-31T18:59:52.051Z,10.83
2022-10-31T19:02:39.581Z,9.93
2022-10-31T19:05:26.831Z,10.53
2022-10-31T19:08:14.905Z,10.32
2022-10-31T19:11:06.471Z,10.63
2022-10-31T19:13:53.988Z,11.23
2022-10-31T19:16:41.923Z,10.37
2022-10-31T19:19:29.203Z,10.30
2022-10-31T19:22:16.588Z,10.40
2022-10-31T19:25:07.668Z,13.43
2022-10-31T19:27:58.280Z,10.93
2022-10-31T19:30:52.881Z,11.13
2022-10-31T19:33:40.301Z,10.10
2022-10-31T19:36:29.607Z,10.37
2022-10-31T19:39:16.857Z,8.30
2022-10-31T19:42:04.805Z,8.80
2022-10-31T19:44:52.581Z,9.00
2022-10-31T19:47:40.163Z,9.30
2022-10-31T19:50:28.972Z,9.20
2022-10-31T19:53:17.232Z,10.80
2022-10-31T19:56:05.489Z,9.43
2022-10-31T19:58:53.002Z,8.70
2022-10-31T20:01:40.768Z,9.10
2022-10-31T20:04:28.132Z,8.60
2022-10-31T20:07:15.958Z,8.43
2022-10-31T20:10:03.456Z,8.67
2022-10-31T20:12:50.665Z,8.43
2022-10-31T20:15:38.118Z,8.07
2022-10-31T20:18:26.250Z,9.50
2022-10-31T20:21:15.636Z,9.43
2022-10-31T20:24:04.233Z,8.50
2022-10-31T20:26:52.086Z,9.23
2022-10-31T20:29:39.337Z,7.33
2022-10-31T20:32:27.187Z,8.90
2022-10-31T20:35:14.454Z,8.17
2022-10-31T20:38:02.276Z,9.13
2022-10-31T20:40:49.911Z,8.97
2022-10-31T20:43:38.211Z,9.00
2022-10-31T20:46:26.619Z,8.67
2022-10-31T20:49:13.879Z,7.77
2022-10-31T20:52:01.078Z,7.83
2022-10-31T20:54:48.744Z,7.57
2022-10-31T20:57:36.159Z,8.20
2022-10-31T21:00:23.559Z,7.43
2022-10-31T21:03:11.179Z,8.23
2022-10-31T21:06:00.405Z,7.00
2022-10-31T21:08:48.003Z,6.50
2022-10-31T21:11:35.415Z,8.07
2022-10-31T21:14:22.605Z,6.77
2022-10-31T21:17:09.836Z,6.90
2022-10-31T21:19:57.275Z,6.67
2022-10-31T21:22:44.917Z,6.73
2022-10-31T21:25:32.092Z,5.93
2022-10-31T21:28:19.449Z,6.20
2022-10-31T21:31:08.383Z,5.87
2022-10-31T21:33:56.066Z,6.37
2022-10-31T21:36:43.748Z,7.57
2022-10-31T21:39:31.574Z,6.33
2022-10-31T21:42:21.455Z,6.60
2022-10-31T21:45:09.251Z,6.37
2022-10-31T21:47:56.503Z,5.30
2022-10-31T21:50:44.342Z,5.60
2022-10-31T21:53:50.929Z,6.17
2022-10-31T21:56:38.445Z,6.23
2022-10-31T21:59:26.411Z,5.73
2022-10-31T22:02:13.716Z,6.13
2022-10-31T22:05:01.659Z,5.90
2022-10-31T22:07:49.562Z,6.23
2022-10-31T22:10:36.766Z,4.73
2022-10-31T22:13:23.988Z,5.47
2022-10-31T22:16:12.437Z,5.40
2022-10-31T22:19:04.912Z,5.10
2022-10-31T22:21:52.300Z,5.67
2022-10-31T22:24:39.926Z,5.43
2022-10-31T22:27:27.335Z,4.53
2022-10-31T22:30:14.636Z,5.10
2022-10-31T22:33:02.236Z,5.33
2022-10-31T22:35:51.007Z,4.60
2022-10-31T22:38:40.134Z,4.37
2022-10-31T22:41:29.454Z,4.63
2022-10-31T22:44:16.816Z,4.10
2022-10-31T22:47:04.645Z,5.20
2022-10-31T22:49:51.904Z,5.23
2022-10-31T22:52:39.711Z,4.43
2022-10-31T22:55:26.931Z,4.80
2022-10-31T22:58:14.600Z,4.30
2022-10-31T23:01:07.057Z,5.10
2022-10-31T23:03:55.381Z,4.27
2022-10-31T23:06:43.075Z,4.17
2022-10-31T23:09:30.943Z,4.20
2022-10-31T23:12:37.564Z,4.80
2022-10-31T23:15:24.956Z,5.00
2022-10-31T23:18:23.958Z,4.80
2022-10-31T23:21:38.518Z,3.90
2022-10-31T23:24:38.944Z,3.30
2022-10-31T23:27:27.048Z,3.23
2022-10-31T23:30:14.275Z,3.70
2022-10-31T23:33:02.322Z,4.83
2022-10-31T23:35:49.690Z,3.87
2022-10-31T23:38:37.539Z,3.53
2022-10-31T23:41:25.243Z,3.83
2022-10-31T23:44:13.608Z,4.50
2022-10-31T23:47:01.137Z,4.13
2022-10-31T23:49:48.616Z,4.00
2022-10-31T23:52:36.457Z,3.60
2022-10-31T23:55:25.214Z,3.90
2022-10-31T23:58:13.086Z,3.97
